Terminal Aerodrome Forecast
Issued by NWS Wakefield, VA

Home | Current Version | Previous Version | Text Only | Print | Product List | Glossary On
Versions: 1 2 3 4 5 6 7 8 9 10 11 12 13 14 15 16 17 18 19 20
000
FTUS41 KAKQ 191700
TAFECG
TAF
KECG 191728Z 1918/2018 04015G24KT P6SM -RA OVC090
     FM200000 04011G20KT P6SM -RA OVC070
     FM201200 05018KT P6SM BKN120=

USA.gov is the U.S. government's official web portal to all federal, state and local government web resources and services.